createdAt,value
2023-01-28T00:00:22.703Z,99045.19
2023-01-28T00:01:23.960Z,99038.38
2023-01-28T00:02:25.222Z,99032.03
2023-01-28T00:03:26.578Z,99039.50
2023-01-28T00:04:27.902Z,99035.56
2023-01-28T00:05:29.084Z,99029.97
2023-01-28T00:06:30.312Z,99035.44
2023-01-28T00:07:31.515Z,99036.22
2023-01-28T00:08:33.114Z,99035.19
2023-01-28T00:09:34.337Z,99034.06
2023-01-28T00:10:36.609Z,99037.69
2023-01-28T00:11:38.033Z,99037.56
2023-01-28T00:12:39.245Z,99034.16
2023-01-28T00:13:40.811Z,99038.94
2023-01-28T00:14:42.045Z,99037.38
2023-01-28T00:15:43.329Z,99038.38
2023-01-28T00:16:44.629Z,99034.97
2023-01-28T00:17:45.862Z,99042.91
2023-01-28T00:18:47.107Z,99039.63
2023-01-28T00:19:48.298Z,99038.50
2023-01-28T00:20:56.798Z,99041.56
2023-01-28T00:21:58.043Z,99036.69
2023-01-28T00:22:59.240Z,99046.91
2023-01-28T00:24:00.505Z,99042.72
2023-01-28T00:25:01.799Z,99044.41
2023-01-28T00:26:04.724Z,99040.09
2023-01-28T00:27:05.955Z,99040.66
2023-01-28T00:28:07.248Z,99040.34
2023-01-28T00:29:08.471Z,99044.41
2023-01-28T00:30:11.173Z,99041.25
2023-01-28T00:31:14.349Z,99041.00
2023-01-28T00:32:15.735Z,99034.75
2023-01-28T00:33:16.985Z,99038.63
2023-01-28T00:34:18.195Z,99036.56
2023-01-28T00:35:19.437Z,99033.19
2023-01-28T00:36:21.625Z,99035.88
2023-01-28T00:37:22.957Z,99024.88
2023-01-28T00:38:24.183Z,99029.88
2023-01-28T00:39:25.993Z,99026.25
2023-01-28T00:40:27.342Z,99024.75
2023-01-28T00:41:29.420Z,99026.56
2023-01-28T00:42:32.568Z,99026.94
2023-01-28T00:43:33.795Z,99029.31
2023-01-28T00:44:34.996Z,99023.28
2023-01-28T00:45:37.639Z,99028.75
2023-01-28T00:46:38.912Z,99014.91
2023-01-28T00:47:40.183Z,99027.25
2023-01-28T00:48:42.234Z,99021.25
2023-01-28T00:49:43.452Z,99029.78
2023-01-28T00:50:44.715Z,99026.25
2023-01-28T00:51:45.950Z,99026.13
2023-01-28T00:52:50.007Z,99023.97
2023-01-28T00:53:52.377Z,99031.00
2023-01-28T00:54:53.605Z,99026.56
2023-01-28T00:55:54.888Z,99023.41
2023-01-28T00:56:56.087Z,99021.34
2023-01-28T00:57:57.288Z,99028.97
2023-01-28T00:58:58.583Z,99029.78
2023-01-28T00:59:59.977Z,99023.19
2023-01-28T01:01:16.285Z,99020.56
2023-01-28T01:02:17.602Z,99023.75
2023-01-28T01:03:20.403Z,99018.97
2023-01-28T01:04:21.653Z,99022.97
2023-01-28T01:05:22.866Z,99019.53
2023-01-28T01:06:24.812Z,99019.78
2023-01-28T01:07:30.369Z,99022.25
2023-01-28T01:08:31.655Z,99019.31
2023-01-28T01:09:33.026Z,99018.50
2023-01-28T01:10:34.232Z,99012.50
2023-01-28T01:11:35.499Z,99019.53
2023-01-28T01:12:36.960Z,99022.94
2023-01-28T01:13:38.359Z,99022.16
2023-01-28T01:14:39.614Z,99025.09
2023-01-28T01:15:42.063Z,99024.31
2023-01-28T01:16:43.300Z,99034.09
2023-01-28T01:17:45.758Z,99034.75
2023-01-28T01:18:47.097Z,99024.09
2023-01-28T01:19:48.444Z,99028.19
2023-01-28T01:20:50.870Z,99038.16
2023-01-28T01:21:53.007Z,99030.56
2023-01-28T01:22:54.550Z,99024.75
2023-01-28T01:23:55.897Z,99034.41
2023-01-28T01:24:57.111Z,99029.41
2023-01-28T01:25:58.332Z,99036.91
2023-01-28T01:27:00.018Z,99037.94
2023-01-28T01:28:02.825Z,99037.56
2023-01-28T01:29:04.103Z,99033.97
2023-01-28T01:30:05.643Z,99028.75
2023-01-28T01:31:10.306Z,99040.53
2023-01-28T01:32:11.542Z,99028.88
2023-01-28T01:33:12.876Z,99035.19
2023-01-28T01:34:14.135Z,99034.88
2023-01-28T01:35:15.966Z,99038.16
2023-01-28T01:36:18.270Z,99037.25
2023-01-28T01:37:19.468Z,99037.13
2023-01-28T01:38:20.736Z,99039.41
2023-01-28T01:39:21.948Z,99038.84
2023-01-28T01:40:23.196Z,99040.66
2023-01-28T01:41:29.304Z,99040.97
2023-01-28T01:42:31.265Z,99048.47
2023-01-28T01:43:46.417Z,99044.63
2023-01-28T01:44:50.488Z,99044.84
2023-01-28T01:45:58.031Z,99049.28
2023-01-28T01:46:59.471Z,99048.00
2023-01-28T01:48:30.332Z,99048.25
2023-01-28T01:49:31.697Z,99040.97
2023-01-28T01:50:53.192Z,99043.03
2023-01-28T01:51:58.507Z,99037.56
2023-01-28T01:53:06.779Z,99039.88
2023-01-28T01:54:08.152Z,99042.13
2023-01-28T01:55:12.460Z,99041.22
2023-01-28T01:56:16.720Z,99048.00
2023-01-28T01:57:30.799Z,99054.16
2023-01-28T01:58:35.124Z,99047.47
2023-01-28T01:59:36.827Z,99045.88
2023-01-28T02:00:38.824Z,99045.31
2023-01-28T02:01:40.502Z,99043.38
2023-01-28T02:02:45.674Z,99036.22
2023-01-28T02:03:51.684Z,99043.03
2023-01-28T02:04:52.888Z,99043.28
2023-01-28T02:05:54.221Z,99040.53
2023-01-28T02:06:55.774Z,99042.91
2023-01-28T02:07:58.431Z,99037.50
2023-01-28T02:08:59.763Z,99041.44
2023-01-28T02:10:00.995Z,99043.16
2023-01-28T02:11:04.132Z,99044.53
2023-01-28T02:12:11.653Z,99042.72
2023-01-28T02:13:14.626Z,99039.97
2023-01-28T02:14:29.401Z,99045.53
2023-01-28T02:15:32.078Z,99035.09
2023-01-28T02:16:33.423Z,99033.50
2023-01-28T02:17:35.882Z,99037.81
2023-01-28T02:18:37.429Z,99042.00
2023-01-28T02:19:48.164Z,99048.72
2023-01-28T02:20:49.408Z,99037.81
2023-01-28T02:22:04.621Z,99046.91
2023-01-28T02:23:24.660Z,99045.09
2023-01-28T02:24:42.334Z,99039.44
2023-01-28T02:25:55.811Z,99044.66
2023-01-28T02:27:02.827Z,99048.13
2023-01-28T02:28:06.923Z,99052.25
2023-01-28T02:29:11.166Z,99042.81
2023-01-28T02:30:20.588Z,99043.84
2023-01-28T02:31:24.607Z,99049.50
2023-01-28T02:32:28.905Z,99052.69
2023-01-28T02:33:41.035Z,99042.25
2023-01-28T02:34:45.251Z,99054.28
2023-01-28T02:35:52.289Z,99046.91
2023-01-28T02:37:07.371Z,99052.69
2023-01-28T02:38:12.107Z,99053.03
2023-01-28T02:39:16.775Z,99053.22
2023-01-28T02:40:29.661Z,99053.81
2023-01-28T02:41:37.220Z,99050.06
2023-01-28T02:42:39.551Z,99052.47
2023-01-28T02:43:42.247Z,99057.59
2023-01-28T02:44:43.528Z,99053.47
2023-01-28T02:45:45.366Z,99050.78
2023-01-28T02:46:47.697Z,99052.81
2023-01-28T02:47:48.916Z,99045.09
2023-01-28T02:48:50.234Z,99046.22
2023-01-28T02:49:55.340Z,99052.34
2023-01-28T02:51:09.910Z,99049.16
2023-01-28T02:52:20.164Z,99059.53
2023-01-28T02:53:30.746Z,99058.94
2023-01-28T02:54:36.948Z,99057.59
2023-01-28T02:55:38.251Z,99057.91
2023-01-28T02:56:51.256Z,99054.16
2023-01-28T02:58:12.765Z,99060.41
2023-01-28T02:59:22.132Z,99059.72
2023-01-28T03:00:34.161Z,99063.59
2023-01-28T03:01:42.728Z,99058.81
2023-01-28T03:03:07.272Z,99058.03
2023-01-28T03:04:20.121Z,99059.38
2023-01-28T03:05:24.972Z,99058.56
2023-01-28T03:06:32.356Z,99063.25
2023-01-28T03:07:35.603Z,99064.03
2023-01-28T03:08:57.367Z,99062.81
2023-01-28T03:10:00.702Z,99066.41
2023-01-28T03:11:01.968Z,99059.25
2023-01-28T03:12:06.062Z,99061.28
2023-01-28T03:13:07.342Z,99057.31
2023-01-28T03:14:11.470Z,99061.28
2023-01-28T03:15:15.871Z,99061.72
2023-01-28T03:16:17.463Z,99058.13
2023-01-28T03:17:26.595Z,99062.75
2023-01-28T03:18:28.047Z,99063.69
2023-01-28T03:19:29.307Z,99061.97
2023-01-28T03:20:35.394Z,99061.19
2023-01-28T03:21:40.467Z,99060.28
2023-01-28T03:22:43.495Z,99063.13
2023-01-28T03:23:54.665Z,99054.50
2023-01-28T03:24:56.327Z,99059.72
2023-01-28T03:25:58.821Z,99065.72
2023-01-28T03:27:18.038Z,99062.81
2023-01-28T03:28:22.101Z,99059.16
2023-01-28T03:29:23.816Z,99065.63
2023-01-28T03:30:31.956Z,99060.19
2023-01-28T03:31:37.332Z,99063.25
2023-01-28T03:32:40.673Z,99060.63
2023-01-28T03:33:42.801Z,99066.63
2023-01-28T03:34:45.551Z,99057.47
2023-01-28T03:35:48.444Z,99070.84
2023-01-28T03:36:50.468Z,99068.22
2023-01-28T03:38:08.104Z,99068.22
2023-01-28T03:39:09.458Z,99069.47
2023-01-28T03:40:11.115Z,99064.81
2023-01-28T03:41:12.545Z,99063.47
2023-01-28T03:42:15.049Z,99066.63
2023-01-28T03:43:49.428Z,99069.69
2023-01-28T03:44:50.890Z,99069.91
2023-01-28T03:45:52.693Z,99067.53
2023-01-28T03:46:54.909Z,99072.75
2023-01-28T03:47:56.309Z,99071.50
2023-01-28T03:48:57.607Z,99070.63
2023-01-28T03:49:58.842Z,99064.59
2023-01-28T03:51:01.276Z,99072.09
2023-01-28T03:52:04.278Z,99068.03
2023-01-28T03:53:05.527Z,99076.41
2023-01-28T03:54:13.124Z,99076.84
2023-01-28T03:55:14.995Z,99071.84
2023-01-28T03:56:17.591Z,99074.91
2023-01-28T03:57:20.486Z,99072.31
2023-01-28T03:58:21.876Z,99070.84
2023-01-28T03:59:23.199Z,99068.69
2023-01-28T04:00:24.447Z,99068.34
2023-01-28T04:01:25.812Z,99069.97
2023-01-28T04:02:27.518Z,99074.16
2023-01-28T04:03:28.931Z,99077.78
2023-01-28T04:04:35.538Z,99074.81
2023-01-28T04:05:36.748Z,99077.88
2023-01-28T04:06:38.153Z,99072.31
2023-01-28T04:07:59.332Z,99073.13
2023-01-28T04:09:07.919Z,99072.88
2023-01-28T04:10:30.798Z,99076.97
2023-01-28T04:11:39.930Z,99075.38
2023-01-28T04:12:42.705Z,99082.63
2023-01-28T04:13:44.843Z,99081.03
2023-01-28T04:14:48.299Z,99076.59
2023-01-28T04:15:58.017Z,99080.25
2023-01-28T04:17:00.622Z,99077.06
2023-01-28T04:18:01.859Z,99082.28
2023-01-28T04:19:04.678Z,99080.91
2023-01-28T04:20:07.136Z,99082.28
2023-01-28T04:21:08.394Z,99079.22
2023-01-28T04:22:10.954Z,99081.81
2023-01-28T04:23:13.507Z,99085.88
2023-01-28T04:24:15.714Z,99089.53
2023-01-28T04:25:17.506Z,99086.72
2023-01-28T04:26:18.828Z,99087.28
2023-01-28T04:27:20.403Z,99082.50
2023-01-28T04:28:22.928Z,99080.47
2023-01-28T04:29:24.539Z,99085.16
2023-01-28T04:30:27.423Z,99082.97
2023-01-28T04:31:57.968Z,99087.41
2023-01-28T04:33:22.782Z,99092.19
2023-01-28T04:34:32.778Z,99087.75
2023-01-28T04:36:09.521Z,99091.28
2023-01-28T04:37:29.426Z,99094.56
2023-01-28T04:38:44.855Z,99096.63
2023-01-28T04:40:04.776Z,99091.50
2023-01-28T04:41:16.121Z,99096.50
2023-01-28T04:42:17.591Z,99089.03
2023-01-28T04:43:39.187Z,99102.41
2023-01-28T04:45:04.362Z,99106.41
2023-01-28T04:46:25.934Z,99106.75
2023-01-28T04:47:36.351Z,99105.00
2023-01-28T04:49:00.563Z,99109.69
2023-01-28T04:50:13.504Z,99108.53
2023-01-28T04:51:28.720Z,99107.75
2023-01-28T04:52:50.276Z,99102.88
2023-01-28T04:54:00.110Z,99106.72
2023-01-28T04:55:05.090Z,99100.81
2023-01-28T04:56:06.426Z,99099.78
2023-01-28T04:57:09.469Z,99105.25
2023-01-28T04:58:10.818Z,99105.69
2023-01-28T04:59:12.411Z,99103.91
2023-01-28T05:00:13.998Z,99109.69
2023-01-28T05:01:15.323Z,99106.03
2023-01-28T05:02:16.664Z,99111.63
2023-01-28T05:03:19.483Z,99114.03
2023-01-28T05:04:20.780Z,99104.59
2023-01-28T05:05:22.101Z,99113.56
2023-01-28T05:06:30.398Z,99116.06
2023-01-28T05:07:35.321Z,99115.47
2023-01-28T05:08:37.858Z,99118.97
2023-01-28T05:09:39.131Z,99117.75
2023-01-28T05:10:40.445Z,99117.31
2023-01-28T05:11:42.013Z,99114.91
2023-01-28T05:12:44.035Z,99118.00
2023-01-28T05:13:46.107Z,99119.22
2023-01-28T05:14:48.545Z,99119.22
2023-01-28T05:15:53.866Z,99120.47
2023-01-28T05:16:55.766Z,99121.72
2023-01-28T05:17:57.001Z,99119.56
2023-01-28T05:18:58.971Z,99118.97
2023-01-28T05:20:07.123Z,99116.78
2023-01-28T05:21:08.814Z,99113.19
2023-01-28T05:22:12.230Z,99111.25
2023-01-28T05:23:18.543Z,99121.69
2023-01-28T05:24:29.293Z,99120.22
2023-01-28T05:25:30.556Z,99118.31
2023-01-28T05:26:31.960Z,99111.03
2023-01-28T05:27:33.321Z,99113.66
2023-01-28T05:28:34.595Z,99115.56
2023-01-28T05:29:35.908Z,99115.81
2023-01-28T05:30:37.830Z,99120.78
2023-01-28T05:31:39.145Z,99119.41
2023-01-28T05:32:40.416Z,99118.53
2023-01-28T05:33:41.846Z,99121.16
2023-01-28T05:34:45.714Z,99120.78
2023-01-28T05:35:48.836Z,99122.47
2023-01-28T05:36:51.457Z,99117.03
2023-01-28T05:38:05.703Z,99126.56
2023-01-28T05:39:07.059Z,99123.16
2023-01-28T05:40:09.418Z,99122.59
2023-01-28T05:41:11.806Z,99120.44
2023-01-28T05:42:13.707Z,99127.81
2023-01-28T05:43:19.259Z,99122.72
2023-01-28T05:44:36.028Z,99119.94
2023-01-28T05:45:50.128Z,99122.00
2023-01-28T05:46:58.180Z,99123.38
2023-01-28T05:48:18.101Z,99126.56
2023-01-28T05:49:24.340Z,99130.19
2023-01-28T05:50:46.814Z,99124.72
2023-01-28T05:51:52.739Z,99117.81
2023-01-28T05:52:56.116Z,99121.47
2023-01-28T05:54:02.228Z,99124.31
2023-01-28T05:55:03.641Z,99123.97
2023-01-28T05:56:05.778Z,99122.59
2023-01-28T05:57:07.972Z,99122.59
2023-01-28T05:58:09.257Z,99127.81
2023-01-28T05:59:11.652Z,99126.25
2023-01-28T06:00:16.835Z,99132.81
2023-01-28T06:01:19.388Z,99128.06
2023-01-28T06:02:24.779Z,99121.22
2023-01-28T06:03:29.533Z,99125.78
2023-01-28T06:04:30.887Z,99131.00
2023-01-28T06:05:33.227Z,99129.19
2023-01-28T06:06:35.695Z,99125.22
2023-01-28T06:07:39.683Z,99123.03
2023-01-28T06:08:43.936Z,99129.41
2023-01-28T06:09:46.494Z,99133.47
2023-01-28T06:10:49.200Z,99133.06
2023-01-28T06:11:50.688Z,99140.22
2023-01-28T06:12:52.692Z,99140.09
2023-01-28T06:14:26.962Z,99141.13
2023-01-28T06:15:45.137Z,99149.94
2023-01-28T06:16:57.490Z,99145.97
2023-01-28T06:18:01.060Z,99147.91
2023-01-28T06:19:05.715Z,99150.53
2023-01-28T06:20:08.044Z,99156.53
2023-01-28T06:21:11.255Z,99159.16
2023-01-28T06:22:12.646Z,99159.94
2023-01-28T06:23:13.921Z,99156.53
2023-01-28T06:24:15.497Z,99158.56
2023-01-28T06:25:16.956Z,99160.50
2023-01-28T06:26:18.196Z,99158.91
2023-01-28T06:27:20.726Z,99162.78
2023-01-28T06:28:22.436Z,99160.38
2023-01-28T06:29:23.750Z,99155.16
2023-01-28T06:30:25.003Z,99156.97
2023-01-28T06:31:26.422Z,99163.22
2023-01-28T06:32:27.958Z,99162.13
2023-01-28T06:33:29.199Z,99163.47
2023-01-28T06:34:30.475Z,99165.53
2023-01-28T06:35:31.681Z,99163.34
2023-01-28T06:36:32.946Z,99158.38
2023-01-28T06:37:34.171Z,99162.78
2023-01-28T06:38:35.511Z,99171.63
2023-01-28T06:39:36.714Z,99170.25
2023-01-28T06:40:38.170Z,99171.28
2023-01-28T06:41:39.400Z,99170.50
2023-01-28T06:42:40.618Z,99173.09
2023-01-28T06:43:41.994Z,99174.91
2023-01-28T06:44:43.240Z,99176.28
2023-01-28T06:45:44.491Z,99171.84
2023-01-28T06:46:45.749Z,99180.28
2023-01-28T06:47:47.018Z,99181.84
2023-01-28T06:48:48.294Z,99185.69
2023-01-28T06:49:49.483Z,99176.03
2023-01-28T06:50:50.685Z,99177.84
2023-01-28T06:51:51.995Z,99184.66
2023-01-28T06:52:53.191Z,99189.31
2023-01-28T06:53:54.385Z,99192.31
2023-01-28T06:54:55.632Z,99189.88
2023-01-28T06:55:56.831Z,99194.91
2023-01-28T06:56:58.035Z,99186.84
2023-01-28T06:57:59.227Z,99188.66
2023-01-28T06:59:00.570Z,99187.63
2023-01-28T07:00:01.846Z,99190.97
2023-01-28T07:01:03.156Z,99191.41
2023-01-28T07:02:04.465Z,99191.03
2023-01-28T07:03:05.968Z,99188.91
2023-01-28T07:04:07.227Z,99194.91
2023-01-28T07:05:08.722Z,99188.91
2023-01-28T07:06:10.036Z,99193.66
2023-01-28T07:07:11.323Z,99193.66
2023-01-28T07:08:12.582Z,99202.50
2023-01-28T07:09:13.835Z,99196.25
2023-01-28T07:10:15.357Z,99194.44
2023-01-28T07:11:16.910Z,99208.53
2023-01-28T07:12:18.091Z,99200.91
2023-01-28T07:13:19.288Z,99205.13
2023-01-28T07:14:20.546Z,99202.41
2023-01-28T07:15:21.800Z,99203.22
2023-01-28T07:16:23.028Z,99204.22
2023-01-28T07:17:24.315Z,99205.47
2023-01-28T07:18:25.647Z,99205.91
2023-01-28T07:19:26.843Z,99211.50
2023-01-28T07:20:28.069Z,99212.84
2023-01-28T07:21:31.370Z,99211.50
2023-01-28T07:22:32.575Z,99209.91
2023-01-28T07:23:33.853Z,99208.09
2023-01-28T07:24:35.102Z,99203.00
2023-01-28T07:25:36.355Z,99204.47
2023-01-28T07:26:37.619Z,99209.25
2023-01-28T07:27:38.982Z,99209.38
2023-01-28T07:28:40.256Z,99208.78
2023-01-28T07:29:41.523Z,99212.19
2023-01-28T07:30:42.754Z,99208.13
2023-01-28T07:31:44.065Z,99216.97
2023-01-28T07:32:45.727Z,99215.59
2023-01-28T07:33:47.026Z,99209.56
2023-01-28T07:34:48.271Z,99219.47
2023-01-28T07:35:49.487Z,99218.44
2023-01-28T07:36:50.755Z,99220.25
2023-01-28T07:37:56.377Z,99226.28
2023-01-28T07:38:57.627Z,99223.66
2023-01-28T07:39:58.841Z,99220.63
2023-01-28T07:41:00.116Z,99214.94
2023-01-28T07:42:01.571Z,99220.38
2023-01-28T07:43:13.187Z,99217.09
2023-01-28T07:44:15.360Z,99220.75
2023-01-28T07:45:16.656Z,99222.34
2023-01-28T07:46:17.937Z,99223.50
2023-01-28T07:47:19.271Z,99218.50
2023-01-28T07:48:20.568Z,99218.69
2023-01-28T07:49:21.836Z,99221.09
2023-01-28T07:50:23.254Z,99223.50
2023-01-28T07:51:24.492Z,99222.22
2023-01-28T07:52:25.775Z,99227.69
2023-01-28T07:53:27.367Z,99225.66
2023-01-28T07:54:29.058Z,99227.44
2023-01-28T07:55:31.455Z,99228.84
2023-01-28T07:56:32.813Z,99228.19
2023-01-28T07:57:34.091Z,99231.22
2023-01-28T07:58:35.480Z,99235.88
2023-01-28T07:59:36.728Z,99238.25
2023-01-28T08:00:38.396Z,99235.09
2023-01-28T08:01:42.265Z,99233.84
2023-01-28T08:02:43.528Z,99234.84
2023-01-28T08:03:44.779Z,99239.41
2023-01-28T08:04:46.248Z,99236.56
2023-01-28T08:05:48.467Z,99239.78
2023-01-28T08:06:49.720Z,99235.47
2023-01-28T08:07:51.065Z,99242.16
2023-01-28T08:08:52.495Z,99244.34
2023-01-28T08:09:53.678Z,99239.09
2023-01-28T08:10:54.940Z,99242.72
2023-01-28T08:11:56.214Z,99235.13
2023-01-28T08:12:58.214Z,99235.34
2023-01-28T08:13:59.429Z,99239.53
2023-01-28T08:15:01.371Z,99237.72
2023-01-28T08:16:03.369Z,99247.38
2023-01-28T08:17:05.155Z,99240.47
2023-01-28T08:18:07.985Z,99248.53
2023-01-28T08:19:10.548Z,99251.72
2023-01-28T08:20:12.132Z,99246.41
2023-01-28T08:21:13.357Z,99246.41
2023-01-28T08:22:14.625Z,99246.41
2023-01-28T08:23:17.758Z,99251.41
2023-01-28T08:24:19.081Z,99244.00
2023-01-28T08:25:20.429Z,99246.16
2023-01-28T08:26:21.962Z,99252.44
2023-01-28T08:27:23.187Z,99252.69
2023-01-28T08:28:24.600Z,99252.31
2023-01-28T08:29:25.842Z,99253.34
2023-01-28T08:30:27.126Z,99252.19
2023-01-28T08:31:28.423Z,99254.38
2023-01-28T08:32:30.092Z,99259.81
2023-01-28T08:33:31.382Z,99254.94
2023-01-28T08:34:32.578Z,99251.53
2023-01-28T08:35:34.080Z,99261.19
2023-01-28T08:36:35.521Z,99254.69
2023-01-28T08:37:36.779Z,99262.22
2023-01-28T08:38:38.037Z,99257.78
2023-01-28T08:39:39.387Z,99255.97
2023-01-28T08:40:40.706Z,99256.09
2023-01-28T08:41:41.975Z,99254.25
2023-01-28T08:42:50.062Z,99254.50
2023-01-28T08:43:51.296Z,99253.47
2023-01-28T08:44:52.551Z,99254.03
2023-01-28T08:45:53.778Z,99250.97
2023-01-28T08:46:54.968Z,99250.88
2023-01-28T08:47:57.487Z,99242.47
2023-01-28T08:48:58.684Z,99250.06
2023-01-28T08:49:59.881Z,99252.91
2023-01-28T08:51:01.143Z,99254.50
2023-01-28T08:52:02.466Z,99251.44
2023-01-28T08:53:07.967Z,99246.22
2023-01-28T08:54:09.231Z,99250.88
2023-01-28T08:55:11.264Z,99255.88
2023-01-28T08:56:12.485Z,99251.66
2023-01-28T08:57:13.704Z,99257.25
2023-01-28T08:58:15.922Z,99254.06
2023-01-28T08:59:17.436Z,99258.50
2023-01-28T09:00:19.143Z,99257.03
2023-01-28T09:01:20.475Z,99256.69
2023-01-28T09:02:31.045Z,99260.09
2023-01-28T09:03:33.624Z,99256.22
2023-01-28T09:04:35.165Z,99259.06
2023-01-28T09:05:37.374Z,99261.25
2023-01-28T09:06:38.859Z,99263.84
2023-01-28T09:07:40.076Z,99269.22
2023-01-28T09:08:41.276Z,99266.16
2023-01-28T09:09:42.467Z,99269.78
2023-01-28T09:10:43.714Z,99263.66
2023-01-28T09:11:44.989Z,99264.69
2023-01-28T09:12:46.431Z,99268.97
2023-01-28T09:13:47.634Z,99269.31
2023-01-28T09:14:48.815Z,99273.63
2023-01-28T09:15:50.263Z,99275.47
2023-01-28T09:16:51.522Z,99267.63
2023-01-28T09:17:58.859Z,99269.13
2023-01-28T09:19:00.117Z,99277.16
2023-01-28T09:20:01.355Z,99280.81
2023-01-28T09:21:04.458Z,99280.94
2023-01-28T09:22:05.882Z,99280.56
2023-01-28T09:23:07.198Z,99281.25
2023-01-28T09:24:10.739Z,99280.69
2023-01-28T09:25:12.020Z,99281.97
2023-01-28T09:26:13.551Z,99286.94
2023-01-28T09:27:15.007Z,99284.25
2023-01-28T09:28:16.304Z,99287.53
2023-01-28T09:29:17.611Z,99282.75
2023-01-28T09:30:19.029Z,99291.63
2023-01-28T09:31:22.788Z,99286.28
2023-01-28T09:32:24.044Z,99290.34
2023-01-28T09:33:25.323Z,99286.72
2023-01-28T09:34:26.559Z,99282.44
2023-01-28T09:35:27.795Z,99286.28
2023-01-28T09:36:28.992Z,99289.34
2023-01-28T09:37:30.239Z,99294.56
2023-01-28T09:38:31.858Z,99291.28
2023-01-28T09:39:33.462Z,99299.34
2023-01-28T09:40:34.700Z,99299.00
2023-01-28T09:41:41.667Z,99297.19
2023-01-28T09:42:55.315Z,99292.88
2023-01-28T09:44:14.732Z,99299.94
2023-01-28T09:45:18.993Z,99293.69
2023-01-28T09:46:20.715Z,99298.69
2023-01-28T09:47:25.009Z,99300.50
2023-01-28T09:48:30.196Z,99304.69
2023-01-28T09:49:36.907Z,99306.28
2023-01-28T09:50:39.862Z,99303.91
2023-01-28T09:51:42.865Z,99308.56
2023-01-28T09:52:45.005Z,99308.34
2023-01-28T09:53:50.064Z,99304.25
2023-01-28T09:55:13.629Z,99302.78
2023-01-28T09:56:31.151Z,99307.78
2023-01-28T09:57:41.587Z,99309.97
2023-01-28T09:58:42.828Z,99313.94
2023-01-28T09:59:44.031Z,99311.31
2023-01-28T10:00:58.660Z,99310.50
2023-01-28T10:02:03.980Z,99313.13
2023-01-28T10:03:05.261Z,99311.75
2023-01-28T10:04:12.685Z,99312.66
2023-01-28T10:05:29.015Z,99313.69
2023-01-28T10:06:56.627Z,99312.09
2023-01-28T10:08:14.628Z,99314.84
2023-01-28T10:09:24.084Z,99314.84
2023-01-28T10:10:28.248Z,99312.22
2023-01-28T10:11:44.588Z,99314.16
2023-01-28T10:12:51.883Z,99307.78
2023-01-28T10:13:58.859Z,99311.06
2023-01-28T10:15:12.429Z,99301.88
2023-01-28T10:16:36.656Z,99309.03
2023-01-28T10:17:43.307Z,99303.47
2023-01-28T10:18:50.435Z,99300.84
2023-01-28T10:20:08.296Z,99299.22
2023-01-28T10:21:16.302Z,99297.66
2023-01-28T10:22:25.102Z,99298.78
2023-01-28T10:24:02.069Z,99302.75
2023-01-28T10:25:07.355Z,99300.25
2023-01-28T10:26:22.288Z,99291.97
2023-01-28T10:27:24.702Z,99297.22
2023-01-28T10:28:28.953Z,99297.88
2023-01-28T10:29:33.144Z,99300.84
2023-01-28T10:30:45.047Z,99291.19
2023-01-28T10:32:06.564Z,99293.31
2023-01-28T10:33:17.560Z,99291.06
2023-01-28T10:34:20.197Z,99296.06
2023-01-28T10:35:21.636Z,99296.53
2023-01-28T10:36:23.423Z,99293.56
2023-01-28T10:37:24.684Z,99288.00
2023-01-28T10:38:26.856Z,99290.50
2023-01-28T10:39:28.339Z,99293.34
2023-01-28T10:40:29.540Z,99286.41
2023-01-28T10:41:31.627Z,99286.63
2023-01-28T10:42:34.589Z,99281.97
2023-01-28T10:43:38.735Z,99288.00
2023-01-28T10:44:42.301Z,99278.78
2023-01-28T10:45:48.910Z,99288.09
2023-01-28T10:46:51.143Z,99281.84
2023-01-28T10:48:01.500Z,99285.03
2023-01-28T10:49:22.541Z,99288.00
2023-01-28T10:50:25.780Z,99285.69
2023-01-28T10:51:35.103Z,99287.41
2023-01-28T10:52:36.571Z,99291.16
2023-01-28T10:53:47.387Z,99293.31
2023-01-28T10:54:58.911Z,99294.22
2023-01-28T10:56:00.912Z,99289.44
2023-01-28T10:57:03.449Z,99290.22
2023-01-28T10:58:05.005Z,99293.88
2023-01-28T10:59:25.085Z,99297.28
2023-01-28T11:00:27.858Z,99291.34
2023-01-28T11:01:44.711Z,99298.09
2023-01-28T11:02:49.423Z,99297.06
2023-01-28T11:03:59.648Z,99292.88
2023-01-28T11:05:03.655Z,99292.06
2023-01-28T11:06:04.971Z,99294.34
2023-01-28T11:07:17.619Z,99292.06
2023-01-28T11:08:19.507Z,99297.88
2023-01-28T11:09:21.715Z,99294.44
2023-01-28T11:10:25.160Z,99298.44
2023-01-28T11:11:29.392Z,99295.47
2023-01-28T11:12:31.051Z,99300.28
2023-01-28T11:13:32.275Z,99300.38
2023-01-28T11:14:33.478Z,99295.13
2023-01-28T11:15:41.039Z,99292.88
2023-01-28T11:16:42.645Z,99292.75
2023-01-28T11:17:48.198Z,99299.03
2023-01-28T11:18:54.026Z,99292.41
2023-01-28T11:19:56.824Z,99296.66
2023-01-28T11:20:59.805Z,99298.91
2023-01-28T11:22:01.843Z,99293.22
2023-01-28T11:23:03.256Z,99296.75
2023-01-28T11:24:06.572Z,99301.63
2023-01-28T11:25:34.326Z,99300.06
2023-01-28T11:26:40.150Z,99291.97
2023-01-28T11:27:46.382Z,99293.91
2023-01-28T11:28:47.797Z,99296.97
2023-01-28T11:29:49.165Z,99300.59
2023-01-28T11:30:52.038Z,99301.09
2023-01-28T11:31:53.454Z,99305.06
2023-01-28T11:32:59.107Z,99301.19
2023-01-28T11:34:01.794Z,99300.84
2023-01-28T11:35:05.252Z,99295.59
2023-01-28T11:36:16.643Z,99293.44
2023-01-28T11:37:20.311Z,99297.22
2023-01-28T11:38:23.082Z,99293.22
2023-01-28T11:39:25.327Z,99297.91
2023-01-28T11:40:26.911Z,99298.94
2023-01-28T11:41:30.441Z,99298.22
2023-01-28T11:42:31.693Z,99300.72
2023-01-28T11:43:32.965Z,99294.59
2023-01-28T11:44:34.343Z,99298.13
2023-01-28T11:45:40.102Z,99298.22
2023-01-28T11:47:00.312Z,99296.88
2023-01-28T11:48:14.113Z,99305.16
2023-01-28T11:49:15.328Z,99301.06
2023-01-28T11:50:36.814Z,99303.44
2023-01-28T11:51:46.960Z,99306.53
2023-01-28T11:53:06.004Z,99305.50
2023-01-28T11:54:11.571Z,99294.81
2023-01-28T11:55:21.973Z,99293.09
2023-01-28T11:56:23.280Z,99292.53
2023-01-28T11:57:31.395Z,99298.34
2023-01-28T11:58:51.766Z,99307.09
2023-01-28T12:00:12.369Z,99299.50
2023-01-28T12:01:19.334Z,99299.81
2023-01-28T12:02:43.963Z,99297.09
2023-01-28T12:04:04.890Z,99302.66
2023-01-28T12:05:06.212Z,99304.94
2023-01-28T12:06:26.254Z,99306.97
2023-01-28T12:07:46.108Z,99304.25
2023-01-28T12:09:01.628Z,99302.75
2023-01-28T12:10:23.289Z,99306.16
2023-01-28T12:11:30.003Z,99309.47
2023-01-28T12:12:31.285Z,99306.72
2023-01-28T12:13:51.401Z,99296.06
2023-01-28T12:15:11.226Z,99308.00
2023-01-28T12:16:12.515Z,99309.56
2023-01-28T12:17:28.063Z,99302.53
2023-01-28T12:18:32.366Z,99312.75
2023-01-28T12:19:53.563Z,99309.47
2023-01-28T12:21:05.131Z,99316.50
2023-01-28T12:22:13.407Z,99315.03
2023-01-28T12:23:29.774Z,99308.22
2023-01-28T12:24:39.168Z,99306.84
2023-01-28T12:25:43.006Z,99306.94
2023-01-28T12:27:03.101Z,99310.13
2023-01-28T12:28:22.899Z,99315.22
2023-01-28T12:29:33.134Z,99311.22
2023-01-28T12:30:57.840Z,99309.53
2023-01-28T12:32:13.644Z,99308.16
2023-01-28T12:33:27.218Z,99307.38
2023-01-28T12:34:47.206Z,99307.94
2023-01-28T12:35:51.402Z,99312.63
2023-01-28T12:37:00.356Z,99309.88
2023-01-28T12:38:11.233Z,99310.78
2023-01-28T12:39:23.286Z,99313.72
2023-01-28T12:40:33.350Z,99310.97
2023-01-28T12:41:38.978Z,99298.94
2023-01-28T12:42:43.186Z,99308.16